首页
METAR-TAF:

METAR-TAF

机场 :

Millville, 新泽西州, 美国

纬度: 39-21-58N, 经度: 075-04-42W, 海拔: 26米

当前天气观测

该预报发布于52分钟前的20:54 UTC
风速9节,风向西转西南
温度 36°C
湿度 50%
气压 1010 hPa
能見度: 16.1公里
天空无云

METAR: KMIV 212054Z AUTO 25009KT 10SM CLR 36/24 A2982 RMK AO2 SLP094 T03560239 58009

时间: 17:46 (21:46 UTC)

预报

该预报发布于4小时和26分钟前的17:20 UTC
预报有效从21日的 18点(UTC)到 22日的 18点(UTC)
风速8节,风向西
能見度: 10公里
散云层高于5000英尺
从 21日的 2300点(UTC)
风速5节,风向西转西南
能見度: 10公里
多云层高于6000英尺, 积雨云.
附近有雷暴
从 22日的 0300点(UTC)
风速4节,风向多变
能見度: 10公里
多云层高于20000英尺
从 22日的 1200点(UTC)
风速6节,风向
能見度: 10公里
多云层高于9000英尺

TAF: KMIV 211720Z 2118/2218 27008KT P6SM SCT050 FM212300 25005KT P6SM VCTS BKN060CB FM220300 VRB04KT P6SM BKN200 FM221200 18006KT P6SM BKN090

超过4000个机场的气象观测和天气预报(METAR&TAF报告)。

可查询的气象台以黄色和红色小点在地图上表示。

将鼠标移到小点上方,可查看气象台名称。

然后点击查看天气观测和预报。

如需切换地图:点击带黑十字的绿色按钮放大地图;点击带横线的绿色按钮缩小地图;或者点击绿色箭头查看邻近地区的地图。


METAR-TAF: